Time;durP1;ratioP1;P1;durP2;ratioP2;P2;SDS_P1;SDS_P2;PMS_P1;PMS_P2;Temp;Humidity;BMP_temperature;BMP_pressure;BME280_temperature;BME280_humidity;BME280_pressure;Samples;Min_cycle;Max_cycle;Signal;HPM_P1;HPM_P2
2021/12/18 00:02:11;;;;;;;26.33;11.27;;;;;;;;;;5090532;28;20032;-67
2021/12/18 00:04:37;;;;;;;20.80;10.02;;;;;;;;;;5091320;28;20024;-64
2021/12/18 00:07:03;;;;;;;21.33;10.30;;;;;;;;;;5091609;28;20409;-64
2021/12/18 00:09:31;;;;;;;25.23;10.38;;;;;;;;;;5090331;28;20040;-64
2021/12/18 00:11:57;;;;;;;14.20;6.13;;;;;;;;;;5091351;28;20032;-64
2021/12/18 00:14:23;;;;;;;13.73;6.22;;;;;;;;;;5090387;28;20086;-64
2021/12/18 00:16:49;;;;;;;13.20;6.65;;;;;;;;;;5090791;28;20466;-64
2021/12/18 00:19:14;;;;;;;12.80;6.03;;;;;;;;;;5090592;28;20378;-65
2021/12/18 00:21:40;;;;;;;14.38;6.57;;;;;;;;;;5091468;28;20052;-64
2021/12/18 00:24:06;;;;;;;13.18;6.30;;;;;;;;;;5091147;28;20107;-65
2021/12/18 00:26:32;;;;;;;13.48;6.10;;;;;;;;;;5090113;28;20039;-64
2021/12/18 00:28:58;;;;;;;13.20;6.10;;;;;;;;;;5086955;28;20040;-64
2021/12/18 00:31:23;;;;;;;13.48;5.72;;;;;;;;;;5084798;28;20366;-65
2021/12/18 00:33:49;;;;;;;11.95;5.93;;;;;;;;;;5091972;28;20338;-64
2021/12/18 00:36:14;;;;;;;13.07;5.68;;;;;;;;;;5093486;28;20443;-65
2021/12/18 00:38:41;;;;;;;13.85;6.32;;;;;;;;;;5093428;28;20426;-64
2021/12/18 00:43:37;;;;;;;15.18;6.65;;;;;;;;;;5091532;28;20178;-64
2021/12/18 00:46:04;;;;;;;13.75;6.20;;;;;;;;;;5094966;28;20115;-64
2021/12/18 00:48:29;;;;;;;16.15;6.60;;;;;;;;;;5093453;28;20059;-64
2021/12/18 00:50:55;;;;;;;13.88;6.70;;;;;;;;;;5094398;28;20469;-65
2021/12/18 00:53:20;;;;;;;14.73;6.80;;;;;;;;;;5091126;28;20039;-64
2021/12/18 00:55:46;;;;;;;12.35;6.15;;;;;;;;;;5092990;28;20506;-65
2021/12/18 00:58:12;;;;;;;12.55;5.85;;;;;;;;;;5093280;28;20024;-67
2021/12/18 01:00:40;;;;;;;12.70;5.97;;;;;;;;;;5088004;28;20020;-65
2021/12/18 01:03:14;;;;;;;12.82;6.15;;;;;;;;;;5089358;28;20038;-64
2021/12/18 01:05:40;;;;;;;11.50;5.75;;;;;;;;;;5092756;28;20067;-65
2021/12/18 01:08:05;;;;;;;12.20;5.70;;;;;;;;;;5091577;28;20059;-65
2021/12/18 01:13:20;;;;;;;12.85;5.85;;;;;;;;;;5091452;28;20055;-67
2021/12/18 01:15:50;;;;;;;;;;;;;;;;;;5093346;28;20398;-64
2021/12/18 01:23:44;;;;;;;14.30;7.03;;;;;;;;;;5094469;28;20229;-65
2021/12/18 01:26:10;;;;;;;15.13;7.10;;;;;;;;;;5093075;28;20131;-65
2021/12/18 01:28:35;;;;;;;16.67;8.02;;;;;;;;;;5091025;28;20020;-64
2021/12/18 01:31:02;;;;;;;17.40;8.00;;;;;;;;;;5093484;28;20058;-64
2021/12/18 01:33:27;;;;;;;22.75;8.05;;;;;;;;;;5090925;28;20036;-65
2021/12/18 01:35:53;;;;;;;17.38;8.07;;;;;;;;;;5093051;28;20043;-64
2021/12/18 01:38:21;;;;;;;19.13;8.45;;;;;;;;;;5090290;28;20036;-65
2021/12/18 01:40:47;;;;;;;19.17;8.13;;;;;;;;;;5092622;28;20040;-65
2021/12/18 01:46:19;;;;;;;21.05;8.50;;;;;;;;;;5094023;28;20505;-65
2021/12/18 01:51:23;;;;;;;20.02;8.90;;;;;;;;;;5090804;28;20039;-65
2021/12/18 01:53:52;;;;;;;22.95;9.65;;;;;;;;;;5093845;28;20032;-65
2021/12/18 01:56:18;;;;;;;22.90;9.02;;;;;;;;;;5090846;28;20035;-66
2021/12/18 01:58:45;;;;;;;22.85;9.68;;;;;;;;;;5091606;28;20028;-64
2021/12/18 02:01:11;;;;;;;20.15;9.25;;;;;;;;;;5092598;28;20107;-68
2021/12/18 02:03:37;;;;;;;20.80;9.45;;;;;;;;;;5090026;28;20633;-66
2021/12/18 02:06:02;;;;;;;20.45;9.02;;;;;;;;;;5093242;28;20032;-66
2021/12/18 02:08:30;;;;;;;21.58;8.73;;;;;;;;;;5091181;28;20379;-66
2021/12/18 02:11:11;;;;;;;20.58;8.80;;;;;;;;;;5091418;28;20046;-66
2021/12/18 02:14:04;;;;;;;;;;;;;;;;;;5091437;28;20052;-66
2021/12/18 02:21:50;;;;;;;20.52;8.38;;;;;;;;;;5090159;28;20162;-65
2021/12/18 02:24:16;;;;;;;25.60;9.23;;;;;;;;;;5091472;28;20118;-69
2021/12/18 02:26:42;;;;;;;23.95;9.48;;;;;;;;;;5091098;28;20465;-66
2021/12/18 02:29:11;;;;;;;26.33;9.93;;;;;;;;;;5090446;28;20153;-68
2021/12/18 02:31:36;;;;;;;24.73;9.65;;;;;;;;;;5082478;28;20040;-67
2021/12/18 02:34:03;;;;;;;21.85;9.38;;;;;;;;;;5090306;28;20039;-66
2021/12/18 02:36:29;;;;;;;23.33;9.90;;;;;;;;;;5091546;28;20027;-67
2021/12/18 02:39:07;;;;;;;23.55;9.45;;;;;;;;;;5089979;28;20032;-67
2021/12/18 02:44:09;;;;;;;24.02;9.48;;;;;;;;;;5090447;28;20032;-67
2021/12/18 02:46:36;;;;;;;21.02;8.57;;;;;;;;;;5090211;28;20035;-67
2021/12/18 02:49:13;;;;;;;18.08;7.90;;;;;;;;;;5088973;28;20117;-67
2021/12/18 02:51:40;;;;;;;19.58;8.40;;;;;;;;;;5091014;28;20047;-67
2021/12/18 02:54:06;;;;;;;19.40;8.57;;;;;;;;;;5091289;28;20046;-67
2021/12/18 02:56:32;;;;;;;20.92;8.93;;;;;;;;;;5080326;28;20048;-67
2021/12/18 02:59:08;;;;;;;21.75;8.55;;;;;;;;;;5085503;28;20056;-68
2021/12/18 03:01:35;;;;;;;22.80;8.98;;;;;;;;;;5078976;28;20509;-67
2021/12/18 03:04:04;;;;;;;20.83;8.85;;;;;;;;;;5077158;28;20110;-67
2021/12/18 03:06:40;;;;;;;22.77;9.25;;;;;;;;;;5086499;28;20043;-67
2021/12/18 03:25:25;;;;;;;20.08;8.90;;;;;;;;;;5091693;28;20458;-67
2021/12/18 03:27:51;;;;;;;21.00;8.68;;;;;;;;;;5090008;28;20140;-66
2021/12/18 03:30:17;;;;;;;22.65;9.65;;;;;;;;;;5085865;28;20440;-67
2021/12/18 03:32:44;;;;;;;24.33;9.85;;;;;;;;;;5088697;28;20059;-66
2021/12/18 03:35:10;;;;;;;25.27;9.48;;;;;;;;;;5088284;28;20382;-66
2021/12/18 03:37:37;;;;;;;23.83;9.65;;;;;;;;;;5089398;28;20042;-66
2021/12/18 03:40:08;;;;;;;27.15;10.55;;;;;;;;;;5090971;28;20040;-66
2021/12/18 03:42:34;;;;;;;26.30;9.82;;;;;;;;;;5089063;28;20501;-66
2021/12/18 03:45:00;;;;;;;25.00;10.60;;;;;;;;;;5088810;28;20032;-66
2021/12/18 03:47:25;;;;;;;29.63;10.27;;;;;;;;;;5087669;28;20059;-67
2021/12/18 03:49:51;;;;;;;28.23;10.65;;;;;;;;;;5091891;28;20058;-67
2021/12/18 03:52:17;;;;;;;26.92;10.55;;;;;;;;;;5089692;28;20534;-67
2021/12/18 03:54:42;;;;;;;29.13;10.50;;;;;;;;;;5084890;28;20036;-66
2021/12/18 03:57:08;;;;;;;25.45;10.02;;;;;;;;;;5087750;28;20032;-67
2021/12/18 03:59:33;;;;;;;27.30;10.27;;;;;;;;;;5089088;28;20036;-66
2021/12/18 04:01:58;;;;;;;27.92;10.52;;;;;;;;;;5087921;28;20043;-67
2021/12/18 04:04:24;;;;;;;29.33;10.75;;;;;;;;;;5089613;28;20085;-68
2021/12/18 04:06:50;;;;;;;29.30;11.02;;;;;;;;;;5085887;28;20058;-66
2021/12/18 04:09:16;;;;;;;29.35;10.70;;;;;;;;;;5093591;28;20032;-66
2021/12/18 04:11:42;;;;;;;31.92;10.88;;;;;;;;;;5093892;28;20849;-65
2021/12/18 04:14:08;;;;;;;27.73;10.90;;;;;;;;;;5094104;28;20496;-65
2021/12/18 04:16:34;;;;;;;30.58;10.38;;;;;;;;;;5092559;28;20035;-66
2021/12/18 04:19:01;;;;;;;28.40;10.68;;;;;;;;;;5095503;28;20101;-66
2021/12/18 04:21:29;;;;;;;28.15;10.65;;;;;;;;;;5091879;28;20028;-66
2021/12/18 04:23:54;;;;;;;28.02;11.20;;;;;;;;;;5093990;28;20067;-65
2021/12/18 04:26:20;;;;;;;28.95;11.00;;;;;;;;;;5092161;28;20101;-66
2021/12/18 04:28:45;;;;;;;28.17;11.10;;;;;;;;;;5093690;28;20150;-66
2021/12/18 04:31:11;;;;;;;31.83;11.40;;;;;;;;;;5092078;28;20051;-66
2021/12/18 04:33:36;;;;;;;30.67;11.82;;;;;;;;;;5093674;28;20028;-65
2021/12/18 04:36:02;;;;;;;28.98;10.93;;;;;;;;;;5091002;28;20116;-65
2021/12/18 04:38:27;;;;;;;35.80;11.82;;;;;;;;;;5092949;28;20043;-67
2021/12/18 04:40:53;;;;;;;32.30;11.88;;;;;;;;;;5092606;28;20020;-65
2021/12/18 04:43:18;;;;;;;32.88;11.77;;;;;;;;;;5091340;28;20385;-65
2021/12/18 04:45:43;;;;;;;31.83;11.38;;;;;;;;;;5092133;28;20036;-65
2021/12/18 04:48:09;;;;;;;34.60;11.82;;;;;;;;;;5092975;28;20434;-67
2021/12/18 04:50:35;;;;;;;38.35;12.30;;;;;;;;;;5094011;28;20031;-65
2021/12/18 04:53:00;;;;;;;37.15;12.20;;;;;;;;;;5092751;28;20036;-65
2021/12/18 04:55:26;;;;;;;32.47;12.52;;;;;;;;;;5093339;28;20536;-68
2021/12/18 04:57:52;;;;;;;40.05;12.77;;;;;;;;;;5093569;28;20024;-66
2021/12/18 05:00:20;;;;;;;35.00;12.65;;;;;;;;;;5094414;28;20036;-65
2021/12/18 05:02:49;;;;;;;32.28;12.02;;;;;;;;;;5092280;28;20036;-66
2021/12/18 05:05:15;;;;;;;38.33;12.75;;;;;;;;;;5093159;28;20039;-66
2021/12/18 05:07:42;;;;;;;27.73;11.40;;;;;;;;;;5090555;28;20032;-66
2021/12/18 05:10:10;;;;;;;36.83;12.63;;;;;;;;;;5094026;28;20435;-65
2021/12/18 05:12:35;;;;;;;36.90;12.98;;;;;;;;;;5092363;28;20405;-66
2021/12/18 05:15:01;;;;;;;35.42;12.88;;;;;;;;;;5077046;28;20036;-66
2021/12/18 05:17:27;;;;;;;32.42;11.90;;;;;;;;;;5092624;28;20038;-68
2021/12/18 05:19:52;;;;;;;35.35;11.95;;;;;;;;;;5092410;28;20495;-65
2021/12/18 05:22:18;;;;;;;32.72;11.95;;;;;;;;;;5092236;28;20039;-65
2021/12/18 05:24:43;;;;;;;38.97;12.48;;;;;;;;;;5093127;28;20035;-65
2021/12/18 05:27:09;;;;;;;35.15;12.23;;;;;;;;;;5092378;28;20040;-65
2021/12/18 05:29:34;;;;;;;33.33;11.77;;;;;;;;;;5086648;28;20039;-65
2021/12/18 05:32:00;;;;;;;36.40;11.77;;;;;;;;;;5081268;28;20059;-66
2021/12/18 05:34:32;;;;;;;35.83;11.50;;;;;;;;;;5089864;28;20036;-64
2021/12/18 05:39:25;;;;;;;31.40;11.23;;;;;;;;;;5093554;28;20595;-64
2021/12/18 05:41:51;;;;;;;28.58;9.95;;;;;;;;;;5093521;28;20726;-64
2021/12/18 05:44:21;;;;;;;25.02;8.10;;;;;;;;;;5092133;28;20119;-66
2021/12/18 05:46:48;;;;;;;22.17;8.45;;;;;;;;;;5076391;28;20096;-64
2021/12/18 05:49:14;;;;;;;24.05;8.02;;;;;;;;;;5090707;28;20396;-64
2021/12/18 05:51:39;;;;;;;27.10;8.23;;;;;;;;;;5091860;28;20530;-64
2021/12/18 05:54:05;;;;;;;23.83;8.35;;;;;;;;;;5091401;28;20034;-64
2021/12/18 05:56:31;;;;;;;22.33;6.75;;;;;;;;;;5073413;28;20081;-67
2021/12/18 05:58:57;;;;;;;22.02;6.55;;;;;;;;;;5093370;28;20530;-64
2021/12/18 06:01:23;;;;;;;16.90;6.13;;;;;;;;;;5089646;28;20028;-64
2021/12/18 06:03:49;;;;;;;20.83;6.93;;;;;;;;;;5092377;28;20032;-64
2021/12/18 06:06:15;;;;;;;19.38;6.57;;;;;;;;;;5092554;28;20077;-64
2021/12/18 06:08:42;;;;;;;16.70;6.28;;;;;;;;;;5091333;28;20397;-64
2021/12/18 06:11:17;;;;;;;18.42;6.32;;;;;;;;;;5093652;28;20028;-63
2021/12/18 06:13:44;;;;;;;18.50;6.60;;;;;;;;;;5090055;28;20048;-64
2021/12/18 06:16:10;;;;;;;20.90;7.03;;;;;;;;;;5091935;28;20035;-64
2021/12/18 06:18:40;;;;;;;21.00;7.03;;;;;;;;;;5088564;28;20036;-64
2021/12/18 06:21:06;;;;;;;18.10;6.43;;;;;;;;;;5092635;28;20036;-64
2021/12/18 06:23:32;;;;;;;17.80;6.93;;;;;;;;;;5089698;28;20457;-67
2021/12/18 06:25:58;;;;;;;18.23;6.57;;;;;;;;;;5093323;28;20039;-64
2021/12/18 06:28:24;;;;;;;17.50;6.43;;;;;;;;;;5091643;28;20458;-64
2021/12/18 06:30:49;;;;;;;17.48;6.00;;;;;;;;;;5090450;28;20035;-63
2021/12/18 06:33:16;;;;;;;18.98;6.85;;;;;;;;;;5092441;28;20039;-64
2021/12/18 06:35:41;;;;;;;21.05;7.90;;;;;;;;;;5091772;28;20114;-64
2021/12/18 06:38:07;;;;;;;19.88;7.00;;;;;;;;;;5089010;28;20114;-63
2021/12/18 06:40:33;;;;;;;12.75;5.07;;;;;;;;;;5090006;28;20385;-67
2021/12/18 06:42:59;;;;;;;12.20;4.60;;;;;;;;;;5090904;28;20091;-64
2021/12/18 06:45:25;;;;;;;8.32;3.63;;;;;;;;;;5090318;28;20123;-65
2021/12/18 06:47:50;;;;;;;10.68;4.20;;;;;;;;;;5086347;28;20848;-65
2021/12/18 06:50:16;;;;;;;10.93;4.05;;;;;;;;;;5090769;28;20032;-64
2021/12/18 06:52:41;;;;;;;10.77;3.97;;;;;;;;;;5089754;28;20059;-64
2021/12/18 06:55:07;;;;;;;10.98;4.20;;;;;;;;;;5091579;28;20020;-64
2021/12/18 06:57:33;;;;;;;8.60;3.63;;;;;;;;;;5089459;28;20764;-67
2021/12/18 06:59:58;;;;;;;9.70;4.00;;;;;;;;;;5090936;28;20108;-65
2021/12/18 07:02:24;;;;;;;10.95;3.72;;;;;;;;;;5092385;28;20040;-65
2021/12/18 07:04:51;;;;;;;10.27;4.10;;;;;;;;;;5090140;28;20055;-66
2021/12/18 07:07:16;;;;;;;9.45;4.28;;;;;;;;;;5092412;28;20028;-67
2021/12/18 07:09:42;;;;;;;9.73;4.15;;;;;;;;;;5091612;28;20036;-65
2021/12/18 07:12:10;;;;;;;13.13;5.10;;;;;;;;;;5091867;28;20434;-66
2021/12/18 07:14:36;;;;;;;14.85;4.88;;;;;;;;;;5090209;28;20034;-69
2021/12/18 07:17:01;;;;;;;12.45;4.70;;;;;;;;;;5090189;28;20020;-66
2021/12/18 07:19:28;;;;;;;12.25;4.63;;;;;;;;;;5091224;28;20074;-65
2021/12/18 07:21:53;;;;;;;13.02;4.70;;;;;;;;;;5090426;28;20056;-66
2021/12/18 07:24:19;;;;;;;13.63;5.28;;;;;;;;;;5083717;28;20087;-65
2021/12/18 07:26:44;;;;;;;13.80;5.25;;;;;;;;;;5083437;28;20484;-65
2021/12/18 07:29:09;;;;;;;15.70;5.43;;;;;;;;;;5086622;28;20029;-66
2021/12/18 07:31:35;;;;;;;13.13;5.35;;;;;;;;;;5089704;28;20093;-70
2021/12/18 07:34:00;;;;;;;14.55;5.68;;;;;;;;;;5089001;28;20496;-66
2021/12/18 07:36:26;;;;;;;17.55;5.70;;;;;;;;;;5092601;28;20028;-65
2021/12/18 07:38:51;;;;;;;13.27;5.15;;;;;;;;;;5091745;28;20526;-66
2021/12/18 07:41:17;;;;;;;13.77;5.20;;;;;;;;;;5091817;28;20428;-66
2021/12/18 07:43:42;;;;;;;12.82;4.90;;;;;;;;;;5090288;28;20032;-65
2021/12/18 07:46:08;;;;;;;10.30;4.63;;;;;;;;;;5091882;28;20036;-65
2021/12/18 07:48:33;;;;;;;13.77;4.80;;;;;;;;;;5092222;28;20600;-65
2021/12/18 07:50:58;;;;;;;12.57;4.78;;;;;;;;;;5091014;28;20032;-65
2021/12/18 07:53:24;;;;;;;12.90;4.63;;;;;;;;;;5088565;28;20036;-66
2021/12/18 07:55:51;;;;;;;15.40;5.20;;;;;;;;;;5090704;28;20024;-65
2021/12/18 07:58:16;;;;;;;14.95;4.78;;;;;;;;;;5090016;28;20032;-65
2021/12/18 08:00:42;;;;;;;14.85;5.07;;;;;;;;;;5090394;28;20429;-66
2021/12/18 08:03:08;;;;;;;12.60;4.10;;;;;;;;;;5090252;28;20445;-65
2021/12/18 08:05:33;;;;;;;11.10;3.90;;;;;;;;;;5091424;28;20103;-65
2021/12/18 08:07:58;;;;;;;10.90;4.20;;;;;;;;;;5090427;28;20032;-65
2021/12/18 08:10:24;;;;;;;12.50;4.50;;;;;;;;;;5091093;28;20044;-66
2021/12/18 08:12:49;;;;;;;11.02;3.90;;;;;;;;;;5089935;28;20497;-66
2021/12/18 08:15:15;;;;;;;8.73;3.67;;;;;;;;;;5088003;28;20489;-65
2021/12/18 08:17:41;;;;;;;10.80;4.03;;;;;;;;;;5083857;28;20051;-65
2021/12/18 08:20:08;;;;;;;11.90;4.22;;;;;;;;;;5090627;28;20032;-65
2021/12/18 08:22:33;;;;;;;9.52;3.85;;;;;;;;;;5073741;28;20431;-65
2021/12/18 08:25:00;;;;;;;10.93;4.22;;;;;;;;;;5068729;28;20525;-65
2021/12/18 08:27:26;;;;;;;7.18;3.30;;;;;;;;;;5082019;28;20450;-67
2021/12/18 08:29:52;;;;;;;10.50;3.58;;;;;;;;;;5090709;28;20060;-66
2021/12/18 08:32:17;;;;;;;10.80;3.70;;;;;;;;;;5088333;28;20476;-66
2021/12/18 08:34:42;;;;;;;9.40;3.50;;;;;;;;;;5090421;28;20431;-67
2021/12/18 08:37:08;;;;;;;7.68;3.10;;;;;;;;;;5090682;28;20028;-66
2021/12/18 08:39:33;;;;;;;6.53;2.97;;;;;;;;;;5090483;28;20043;-67
2021/12/18 08:42:02;;;;;;;9.20;3.10;;;;;;;;;;5089928;28;20047;-67
2021/12/18 08:44:28;;;;;;;8.27;3.00;;;;;;;;;;5090407;28;20123;-67
2021/12/18 08:46:53;;;;;;;7.40;3.00;;;;;;;;;;5086620;28;20438;-66
2021/12/18 08:49:19;;;;;;;6.90;2.90;;;;;;;;;;5090279;28;20461;-67
2021/12/18 08:51:44;;;;;;;7.55;2.90;;;;;;;;;;5089443;28;20039;-67
2021/12/18 08:54:10;;;;;;;7.82;2.95;;;;;;;;;;5093150;28;20039;-67
2021/12/18 08:56:35;;;;;;;6.25;2.90;;;;;;;;;;5094201;28;20032;-67
2021/12/18 08:59:01;;;;;;;6.93;2.28;;;;;;;;;;5093524;28;20027;-66
2021/12/18 09:01:28;;;;;;;5.53;2.10;;;;;;;;;;5093566;28;20055;-66
2021/12/18 09:03:53;;;;;;;7.28;2.30;;;;;;;;;;5092039;28;20028;-67
2021/12/18 09:06:20;;;;;;;5.22;2.17;;;;;;;;;;5093620;28;20034;-66
2021/12/18 09:08:46;;;;;;;5.03;2.03;;;;;;;;;;5091886;28;20038;-65
2021/12/18 09:11:12;;;;;;;4.97;2.10;;;;;;;;;;5094468;28;20389;-65
2021/12/18 09:13:37;;;;;;;5.93;2.55;;;;;;;;;;5093856;28;20119;-67
2021/12/18 09:16:03;;;;;;;5.88;2.63;;;;;;;;;;5092519;28;20059;-66
2021/12/18 09:18:28;;;;;;;4.70;1.80;;;;;;;;;;5094658;28;20064;-66
2021/12/18 09:20:54;;;;;;;5.45;1.80;;;;;;;;;;5092496;28;20055;-66
2021/12/18 09:23:21;;;;;;;5.28;1.90;;;;;;;;;;5092882;28;20028;-65
2021/12/18 09:25:47;;;;;;;4.25;2.05;;;;;;;;;;5093694;28;20020;-65
2021/12/18 09:28:12;;;;;;;3.92;1.92;;;;;;;;;;5094194;28;20070;-65
2021/12/18 09:30:40;;;;;;;3.80;1.75;;;;;;;;;;5091909;28;20035;-66
2021/12/18 09:33:06;;;;;;;3.55;1.95;;;;;;;;;;5093751;28;20032;-66
2021/12/18 09:35:31;;;;;;;3.67;1.70;;;;;;;;;;5094122;28;20393;-65
2021/12/18 09:37:58;;;;;;;5.50;2.10;;;;;;;;;;5092939;28;20150;-66
2021/12/18 09:40:23;;;;;;;5.43;2.22;;;;;;;;;;5094417;28;20028;-65
2021/12/18 09:42:49;;;;;;;5.15;2.33;;;;;;;;;;5093467;28;20035;-65
2021/12/18 09:45:16;;;;;;;5.75;2.20;;;;;;;;;;5092246;28;20108;-65
2021/12/18 09:47:44;;;;;;;5.43;2.25;;;;;;;;;;5093681;28;20024;-68
2021/12/18 09:50:11;;;;;;;4.43;1.92;;;;;;;;;;5093872;28;20051;-67
2021/12/18 09:52:38;;;;;;;4.93;2.13;;;;;;;;;;5090881;28;20030;-67
2021/12/18 09:55:05;;;;;;;5.22;2.20;;;;;;;;;;5082483;28;20016;-65
2021/12/18 09:57:31;;;;;;;6.30;2.40;;;;;;;;;;5073145;28;20032;-66
2021/12/18 09:59:57;;;;;;;4.75;2.25;;;;;;;;;;5082096;28;20492;-66
2021/12/18 10:02:22;;;;;;;5.05;2.50;;;;;;;;;;5093429;28;20494;-66
2021/12/18 10:04:48;;;;;;;5.22;2.53;;;;;;;;;;5091141;28;20360;-66
2021/12/18 10:07:18;;;;;;;4.43;2.40;;;;;;;;;;5093502;28;20035;-66
2021/12/18 10:09:45;;;;;;;5.22;2.70;;;;;;;;;;5092959;28;20036;-69
2021/12/18 10:12:18;;;;;;;5.18;2.17;;;;;;;;;;5083117;28;20075;-66
2021/12/18 10:14:46;;;;;;;4.78;2.33;;;;;;;;;;5072898;28;20024;-68
2021/12/18 10:17:31;;;;;;;5.60;2.53;;;;;;;;;;5071842;28;20031;-66
2021/12/18 10:20:24;;;;;;;6.28;2.38;;;;;;;;;;5071690;28;20072;-66
2021/12/18 10:22:54;;;;;;;4.88;2.25;;;;;;;;;;5068468;28;20033;-68
2021/12/18 10:25:31;;;;;;;4.43;2.13;;;;;;;;;;5091233;28;20032;-66
2021/12/18 10:28:20;;;;;;;6.80;2.60;;;;;;;;;;5092502;28;20136;-66
2021/12/18 10:30:52;;;;;;;6.18;2.50;;;;;;;;;;5092922;28;20028;-69
2021/12/18 10:33:18;;;;;;;5.47;2.50;;;;;;;;;;5093207;28;20062;-66
2021/12/18 10:35:46;;;;;;;5.45;2.50;;;;;;;;;;5093123;28;20386;-69
2021/12/18 10:38:51;;;;;;;6.38;2.55;;;;;;;;;;5091248;28;20027;-66
2021/12/18 10:41:31;;;;;;;7.60;2.83;;;;;;;;;;5092109;28;20135;-66
2021/12/18 10:43:56;;;;;;;8.55;3.60;;;;;;;;;;5092087;28;20032;-66
2021/12/18 10:46:22;;;;;;;7.07;3.40;;;;;;;;;;5091656;28;20131;-66
2021/12/18 10:48:55;;;;;;;6.28;3.00;;;;;;;;;;5091822;28;20063;-69
2021/12/18 10:51:22;;;;;;;8.93;3.78;;;;;;;;;;5085086;28;20078;-66
2021/12/18 10:53:48;;;;;;;9.07;3.80;;;;;;;;;;5092220;28;20056;-68
2021/12/18 10:56:13;;;;;;;9.15;3.80;;;;;;;;;;5092545;28;20426;-66
2021/12/18 10:58:39;;;;;;;9.50;4.18;;;;;;;;;;5091744;28;20481;-66
2021/12/18 11:01:09;;;;;;;8.70;3.97;;;;;;;;;;5090691;28;20036;-67
2021/12/18 11:03:45;;;;;;;13.98;5.05;;;;;;;;;;5091597;28;20132;-67
2021/12/18 11:06:32;;;;;;;13.25;5.30;;;;;;;;;;5091686;28;20060;-67
2021/12/18 11:09:14;;;;;;;11.25;4.10;;;;;;;;;;5091973;28;20068;-67
2021/12/18 11:14:19;;;;;;;11.20;4.57;;;;;;;;;;5091847;28;19919;-66
2021/12/18 11:16:54;;;;;;;14.63;4.70;;;;;;;;;;5092393;28;20042;-66
2021/12/18 11:19:24;;;;;;;13.73;4.68;;;;;;;;;;5091906;28;20035;-66
2021/12/18 11:21:54;;;;;;;14.17;5.13;;;;;;;;;;5091482;28;20028;-69
2021/12/18 11:24:22;;;;;;;17.83;5.78;;;;;;;;;;5092373;28;20328;-67
2021/12/18 11:26:51;;;;;;;18.52;5.95;;;;;;;;;;5091717;28;20111;-70
2021/12/18 11:29:27;;;;;;;16.25;5.70;;;;;;;;;;5092654;28;20032;-67
2021/12/18 11:31:53;;;;;;;18.38;5.55;;;;;;;;;;5091651;28;20035;-68
2021/12/18 11:34:19;;;;;;;15.43;5.45;;;;;;;;;;5091280;28;20046;-68
2021/12/18 11:36:47;;;;;;;9.93;3.65;;;;;;;;;;5092042;28;20115;-67
2021/12/18 11:39:15;;;;;;;8.60;3.50;;;;;;;;;;5092055;28;20027;-67
2021/12/18 11:41:41;;;;;;;7.28;2.72;;;;;;;;;;5092399;28;20046;-68
2021/12/18 11:44:40;;;;;;;7.18;3.00;;;;;;;;;;5091155;28;20556;-68
2021/12/18 11:47:26;;;;;;;5.32;2.35;;;;;;;;;;5090824;28;20046;-68
2021/12/18 11:49:54;;;;;;;6.18;2.42;;;;;;;;;;5071154;28;20036;-69
2021/12/18 11:52:20;;;;;;;5.82;2.33;;;;;;;;;;5072220;28;20430;-68
2021/12/18 11:54:50;;;;;;;6.13;2.65;;;;;;;;;;5071389;28;20462;-68
2021/12/18 11:57:48;;;;;;;8.82;3.38;;;;;;;;;;5071441;28;20032;-68
2021/12/18 12:00:17;;;;;;;8.63;3.75;;;;;;;;;;5071089;28;20032;-68
2021/12/18 12:02:54;;;;;;;10.27;3.90;;;;;;;;;;5080546;28;20067;-67
2021/12/18 12:05:41;;;;;;;9.00;3.63;;;;;;;;;;5091143;28;20046;-68
2021/12/18 12:08:35;;;;;;;13.32;3.88;;;;;;;;;;5090810;28;20040;-68
2021/12/18 12:11:39;;;;;;;9.43;4.03;;;;;;;;;;5091150;28;20043;-69
2021/12/18 12:14:11;;;;;;;11.10;4.03;;;;;;;;;;5086186;28;20063;-70
2021/12/18 12:16:43;;;;;;;11.52;3.92;;;;;;;;;;5092299;28;20408;-68
2021/12/18 12:19:19;;;;;;;9.50;3.65;;;;;;;;;;5091670;28;20891;-68
2021/12/18 12:21:55;;;;;;;8.00;2.88;;;;;;;;;;5092892;28;20477;-67
2021/12/18 12:24:23;;;;;;;10.48;3.20;;;;;;;;;;5082540;28;20115;-68
2021/12/18 12:26:49;;;;;;;10.23;3.60;;;;;;;;;;5086465;28;20084;-68
2021/12/18 12:29:17;;;;;;;9.52;3.28;;;;;;;;;;5093108;28;20043;-68
2021/12/18 12:31:57;;;;;;;6.80;2.72;;;;;;;;;;5073479;28;20020;-67
2021/12/18 12:34:31;;;;;;;7.65;2.95;;;;;;;;;;5075246;28;20033;-66
2021/12/18 12:36:59;;;;;;;8.10;3.60;;;;;;;;;;5074470;28;20033;-69
2021/12/18 12:39:26;;;;;;;8.00;3.20;;;;;;;;;;5074726;28;20028;-69
2021/12/18 12:41:52;;;;;;;10.38;3.53;;;;;;;;;;5088303;28;20027;-72
2021/12/18 12:44:28;;;;;;;9.77;3.80;;;;;;;;;;5097849;28;20057;-70
2021/12/18 12:47:20;;;;;;;11.27;3.85;;;;;;;;;;5095782;28;20491;-72
2021/12/18 12:49:49;;;;;;;10.88;4.10;;;;;;;;;;5094228;28;20052;-68
2021/12/18 12:52:16;;;;;;;9.85;3.95;;;;;;;;;;5094566;28;20032;-68
2021/12/18 12:54:58;;;;;;;10.40;3.85;;;;;;;;;;5091023;28;20111;-68
2021/12/18 12:57:27;;;;;;;11.38;4.70;;;;;;;;;;5090901;28;20509;-68
2021/12/18 13:00:06;;;;;;;11.55;4.45;;;;;;;;;;5094840;28;20028;-72
2021/12/18 13:02:38;;;;;;;15.05;5.25;;;;;;;;;;5095074;28;20032;-67
2021/12/18 13:05:12;;;;;;;14.40;5.38;;;;;;;;;;5094671;28;20028;-68
2021/12/18 13:07:49;;;;;;;15.95;6.35;;;;;;;;;;5095064;28;20028;-68
2021/12/18 13:10:21;;;;;;;15.75;6.13;;;;;;;;;;5094056;28;20111;-68
2021/12/18 13:12:59;;;;;;;14.13;4.88;;;;;;;;;;5074392;28;20154;-68
2021/12/18 13:15:25;;;;;;;13.57;5.10;;;;;;;;;;5075100;28;20044;-67
2021/12/18 13:18:05;;;;;;;14.48;5.10;;;;;;;;;;5074313;28;20029;-68
2021/12/18 13:20:48;;;;;;;18.83;7.22;;;;;;;;;;5074779;28;20025;-68
2021/12/18 13:23:17;;;;;;;24.88;6.90;;;;;;;;;;5073819;28;20024;-69
2021/12/18 13:25:54;;;;;;;25.55;8.70;;;;;;;;;;5080111;28;20474;-69
2021/12/18 13:28:22;;;;;;;25.50;9.05;;;;;;;;;;5094520;28;20500;-68
2021/12/18 13:30:51;;;;;;;37.45;10.15;;;;;;;;;;5089618;28;20093;-70
2021/12/18 13:33:23;;;;;;;22.55;6.72;;;;;;;;;;5088707;28;20060;-68
2021/12/18 13:35:54;;;;;;;23.13;6.88;;;;;;;;;;5094081;28;20032;-68
2021/12/18 13:38:20;;;;;;;22.50;6.55;;;;;;;;;;5093442;28;20085;-68
2021/12/18 13:40:49;;;;;;;25.05;7.05;;;;;;;;;;5093083;28;20036;-70
2021/12/18 13:43:21;;;;;;;22.35;6.00;;;;;;;;;;5093371;28;20346;-69
2021/12/18 13:45:55;;;;;;;17.02;4.40;;;;;;;;;;5093856;28;20020;-69
2021/12/18 13:48:26;;;;;;;16.20;4.40;;;;;;;;;;5092655;28;20115;-69
2021/12/18 13:50:56;;;;;;;;;;;;;;;;;;5092942;28;20079;-68
2021/12/18 13:53:22;;;;;;;7.05;2.65;;;;;;;;;;5092070;28;19912;-69
2021/12/18 13:55:55;;;;;;;5.10;2.58;;;;;;;;;;5093179;28;20052;-69
2021/12/18 13:58:26;;;;;;;7.45;3.35;;;;;;;;;;5091792;28;20048;-68
2021/12/18 14:01:10;;;;;;;5.85;2.78;;;;;;;;;;5093920;28;20039;-67
2021/12/18 14:03:53;;;;;;;7.05;3.17;;;;;;;;;;5093061;28;20032;-68
2021/12/18 14:06:26;;;;;;;14.73;6.72;;;;;;;;;;5092727;28;20063;-68
2021/12/18 14:09:15;;;;;;;7.95;3.30;;;;;;;;;;5092240;28;20039;-68
2021/12/18 14:11:55;;;;;;;6.40;2.88;;;;;;;;;;5093039;28;20032;-68
2021/12/18 14:14:37;;;;;;;5.93;2.83;;;;;;;;;;5091170;28;20070;-68
2021/12/18 14:17:05;;;;;;;4.88;2.80;;;;;;;;;;5092451;28;20028;-68
2021/12/18 14:19:36;;;;;;;5.28;2.95;;;;;;;;;;5092209;28;20028;-68
2021/12/18 14:22:03;;;;;;;6.45;3.50;;;;;;;;;;5092303;28;20462;-68
2021/12/18 14:24:29;;;;;;;4.28;2.50;;;;;;;;;;5092832;28;20040;-68
2021/12/18 14:26:59;;;;;;;4.68;2.25;;;;;;;;;;5091783;28;20039;-67
2021/12/18 14:29:27;;;;;;;4.63;2.45;;;;;;;;;;5092545;28;20061;-67
2021/12/18 14:31:57;;;;;;;4.75;3.00;;;;;;;;;;5087832;28;20039;-68
2021/12/18 14:34:25;;;;;;;5.20;2.72;;;;;;;;;;5091814;28;20127;-68
2021/12/18 14:37:04;;;;;;;5.70;2.80;;;;;;;;;;5071310;28;20024;-68
2021/12/18 14:39:39;;;;;;;5.28;3.08;;;;;;;;;;5088425;28;20036;-68
2021/12/18 14:42:34;;;;;;;4.53;2.60;;;;;;;;;;5092541;28;20115;-68
2021/12/18 14:45:06;;;;;;;4.18;2.55;;;;;;;;;;5070306;28;20055;-71
2021/12/18 14:47:34;;;;;;;3.33;2.10;;;;;;;;;;5071146;28;20536;-68
2021/12/18 14:50:15;;;;;;;3.67;2.00;;;;;;;;;;5091695;28;20363;-70
2021/12/18 14:52:50;;;;;;;;;;;;;;;;;;5091882;28;20027;-67
2021/12/18 14:55:29;;;;;;;3.95;2.20;;;;;;;;;;5092185;28;19995;-68
2021/12/18 14:58:04;;;;;;;5.53;2.53;;;;;;;;;;5092032;28;20028;-69
2021/12/18 15:00:57;;;;;;;4.97;2.60;;;;;;;;;;5091370;28;20031;-68
2021/12/18 15:03:29;;;;;;;4.63;2.20;;;;;;;;;;5087750;28;20131;-68
2021/12/18 15:06:09;;;;;;;4.32;2.28;;;;;;;;;;5092695;28;20036;-68
2021/12/18 15:08:44;;;;;;;3.10;2.03;;;;;;;;;;5090925;28;20526;-68
2021/12/18 15:11:32;;;;;;;3.35;2.20;;;;;;;;;;5091961;28;20028;-68
2021/12/18 15:14:08;;;;;;;3.00;2.00;;;;;;;;;;5092133;28;20052;-69
2021/12/18 15:16:44;;;;;;;3.22;1.98;;;;;;;;;;5092448;28;20027;-68
2021/12/18 15:19:22;;;;;;;3.70;2.40;;;;;;;;;;5090058;28;20024;-69
2021/12/18 15:21:53;;;;;;;13.05;6.68;;;;;;;;;;5092304;28;20032;-68
2021/12/18 15:24:20;;;;;;;4.68;2.40;;;;;;;;;;5090401;28;20040;-67
2021/12/18 15:26:47;;;;;;;4.57;2.38;;;;;;;;;;5091060;28;20036;-67
2021/12/18 15:29:15;;;;;;;4.43;2.40;;;;;;;;;;5091287;28;20048;-67
2021/12/18 15:31:42;;;;;;;4.65;2.70;;;;;;;;;;5092495;28;20028;-67